createdAt,value
2023-03-06T00:00:27.159Z,6.80
2023-03-06T00:02:58.394Z,6.80
2023-03-06T00:05:27.913Z,6.80
2023-03-06T00:07:57.501Z,6.80
2023-03-06T00:10:28.581Z,6.80
2023-03-06T00:12:59.117Z,6.80
2023-03-06T00:15:29.700Z,6.80
2023-03-06T00:18:00.136Z,6.80
2023-03-06T00:20:29.210Z,6.80
2023-03-06T00:22:58.438Z,6.80
2023-03-06T00:25:27.910Z,6.80
2023-03-06T00:27:56.950Z,6.70
2023-03-06T00:30:26.373Z,6.70
2023-03-06T00:32:55.391Z,6.70
2023-03-06T00:35:26.739Z,6.70
2023-03-06T00:37:57.752Z,6.70
2023-03-06T00:40:27.175Z,6.60
2023-03-06T00:42:56.239Z,6.60
2023-03-06T00:45:25.404Z,6.60
2023-03-06T00:47:54.496Z,6.60
2023-03-06T00:50:23.491Z,6.60
2023-03-06T00:52:53.964Z,6.60
2023-03-06T00:55:23.071Z,6.60
2023-03-06T00:57:52.034Z,6.60
2023-03-06T01:00:21.409Z,6.60
2023-03-06T01:02:53.563Z,6.60
2023-03-06T01:05:24.805Z,6.60
2023-03-06T01:07:55.101Z,6.60
2023-03-06T01:10:24.449Z,6.60
2023-03-06T01:12:53.295Z,6.60
2023-03-06T01:15:23.119Z,6.60
2023-03-06T01:17:54.657Z,6.60
2023-03-06T01:20:24.162Z,6.60
2023-03-06T01:22:55.428Z,6.60
2023-03-06T01:25:25.089Z,6.60
2023-03-06T01:27:54.272Z,6.60
2023-03-06T01:30:23.241Z,6.60
2023-03-06T01:32:52.010Z,6.50
2023-03-06T01:35:20.865Z,6.60
2023-03-06T01:37:49.762Z,6.50
2023-03-06T01:40:20.783Z,6.50
2023-03-06T01:42:50.797Z,6.50
2023-03-06T01:45:57.445Z,6.50
2023-03-06T01:48:26.389Z,6.50
2023-03-06T01:50:55.651Z,6.40
2023-03-06T01:53:24.782Z,6.40
2023-03-06T01:55:55.781Z,6.40
2023-03-06T01:58:25.187Z,6.40
2023-03-06T02:00:54.983Z,6.40
2023-03-06T02:03:27.801Z,6.40
2023-03-06T02:05:57.488Z,6.30
2023-03-06T02:08:27.688Z,6.30
2023-03-06T02:11:10.524Z,6.30
2023-03-06T02:13:40.697Z,6.40
2023-03-06T02:16:11.260Z,6.30
2023-03-06T02:18:42.664Z,6.40
2023-03-06T02:21:14.191Z,6.40
2023-03-06T02:23:55.541Z,6.40
2023-03-06T02:26:29.024Z,6.40
2023-03-06T02:28:59.284Z,6.40
2023-03-06T02:31:31.608Z,6.40
2023-03-06T02:34:08.019Z,6.40
2023-03-06T02:36:42.851Z,6.40
2023-03-06T02:39:14.378Z,6.40
2023-03-06T02:41:44.576Z,6.40
2023-03-06T02:44:15.082Z,6.40
2023-03-06T02:46:45.382Z,6.40
2023-03-06T02:49:14.999Z,6.40
2023-03-06T02:51:43.824Z,6.40
2023-03-06T02:54:14.057Z,6.40
2023-03-06T02:56:46.491Z,6.40
2023-03-06T02:59:15.616Z,6.40
2023-03-06T03:01:44.545Z,6.40
2023-03-06T03:04:13.695Z,6.40
2023-03-06T03:06:43.062Z,6.40
2023-03-06T03:09:13.277Z,6.40
2023-03-06T03:11:42.372Z,6.40
2023-03-06T03:14:13.301Z,6.40
2023-03-06T03:16:42.453Z,6.40
2023-03-06T03:19:11.496Z,6.40
2023-03-06T03:21:42.277Z,6.40
2023-03-06T03:24:11.008Z,6.40
2023-03-06T03:26:39.939Z,6.40
2023-03-06T03:29:15.318Z,6.40
2023-03-06T03:31:44.136Z,6.30
2023-03-06T03:34:13.114Z,6.30
2023-03-06T03:36:43.959Z,6.30
2023-03-06T03:39:14.612Z,6.30
2023-03-06T03:41:44.570Z,6.30
2023-03-06T03:44:16.030Z,6.30
2023-03-06T03:46:45.260Z,6.30
2023-03-06T03:49:19.657Z,6.20
2023-03-06T03:51:48.858Z,6.20
2023-03-06T03:54:17.949Z,6.20
2023-03-06T03:56:49.037Z,6.20
2023-03-06T03:59:26.021Z,6.20
2023-03-06T04:02:08.976Z,6.20
2023-03-06T04:04:45.412Z,6.20
2023-03-06T04:07:15.984Z,6.20
2023-03-06T04:09:45.905Z,6.20
2023-03-06T04:12:15.016Z,6.20
2023-03-06T04:14:46.450Z,6.20
2023-03-06T04:17:15.658Z,6.10
2023-03-06T04:19:45.093Z,6.20
2023-03-06T04:22:14.014Z,6.20
2023-03-06T04:24:42.914Z,6.20
2023-03-06T04:27:12.447Z,6.20
2023-03-06T04:29:41.897Z,6.20
2023-03-06T04:32:12.628Z,6.10
2023-03-06T04:34:42.069Z,6.10
2023-03-06T04:37:18.882Z,6.10
2023-03-06T04:39:48.146Z,6.10
2023-03-06T04:42:17.602Z,6.10
2023-03-06T04:44:47.226Z,6.10
2023-03-06T04:47:19.225Z,6.10
2023-03-06T04:49:48.408Z,6.10
2023-03-06T04:52:17.754Z,6.10
2023-03-06T04:54:47.134Z,6.10
2023-03-06T04:57:16.333Z,6.00
2023-03-06T04:59:45.473Z,6.00
2023-03-06T05:02:14.497Z,6.10
2023-03-06T05:04:45.189Z,6.00
2023-03-06T05:07:14.218Z,6.10
2023-03-06T05:09:43.161Z,6.00
2023-03-06T05:12:12.207Z,6.00
2023-03-06T05:14:41.225Z,6.00
2023-03-06T05:17:10.258Z,6.10
2023-03-06T05:19:39.691Z,6.10
2023-03-06T05:22:10.363Z,6.10
2023-03-06T05:24:39.403Z,6.10
2023-03-06T05:27:08.335Z,6.10
2023-03-06T05:29:37.777Z,6.00
2023-03-06T05:32:07.416Z,6.00
2023-03-06T05:34:36.632Z,6.10
2023-03-06T05:37:05.805Z,6.10
2023-03-06T05:39:36.056Z,6.10
2023-03-06T05:42:05.369Z,6.20
2023-03-06T05:44:34.512Z,6.20
2023-03-06T05:47:03.857Z,6.20
2023-03-06T05:49:34.588Z,6.10
2023-03-06T05:52:05.387Z,6.20
2023-03-06T05:54:37.345Z,6.10
2023-03-06T05:57:07.561Z,6.10
2023-03-06T05:59:36.901Z,6.10
2023-03-06T06:02:05.932Z,6.10
2023-03-06T06:04:34.881Z,6.10
2023-03-06T06:07:06.206Z,6.00
2023-03-06T06:09:36.571Z,6.00
2023-03-06T06:12:05.920Z,6.00
2023-03-06T06:14:35.753Z,6.00
2023-03-06T06:17:05.408Z,6.00
2023-03-06T06:19:34.434Z,6.00
2023-03-06T06:22:04.326Z,5.90
2023-03-06T06:24:33.723Z,5.90
2023-03-06T06:27:04.246Z,5.90
2023-03-06T06:29:33.843Z,5.90
2023-03-06T06:32:03.329Z,5.90
2023-03-06T06:34:32.572Z,5.90
2023-03-06T06:37:01.596Z,5.90
2023-03-06T06:39:30.534Z,5.90
2023-03-06T06:42:20.260Z,5.90
2023-03-06T06:44:49.756Z,5.90
2023-03-06T06:47:24.498Z,5.90
2023-03-06T06:49:55.106Z,5.90
2023-03-06T06:52:25.778Z,5.90
2023-03-06T06:54:54.979Z,5.90
2023-03-06T06:57:24.088Z,5.90
2023-03-06T06:59:54.821Z,5.90
2023-03-06T07:02:24.493Z,5.90
2023-03-06T07:05:03.782Z,5.90
2023-03-06T07:07:35.610Z,5.90
2023-03-06T07:10:06.463Z,5.90
2023-03-06T07:12:35.473Z,5.80
2023-03-06T07:15:08.059Z,5.80
2023-03-06T07:17:37.097Z,5.80
2023-03-06T07:20:07.251Z,5.80
2023-03-06T07:22:49.836Z,5.80
2023-03-06T07:25:21.119Z,5.80
2023-03-06T07:27:53.872Z,5.80
2023-03-06T07:30:25.630Z,5.80
2023-03-06T07:32:55.738Z,5.80
2023-03-06T07:35:25.523Z,5.80
2023-03-06T07:37:55.035Z,5.80
2023-03-06T07:40:24.382Z,5.90
2023-03-06T07:43:06.072Z,5.90
2023-03-06T07:45:47.508Z,5.90
2023-03-06T07:48:16.638Z,6.00
2023-03-06T07:50:45.846Z,6.00
2023-03-06T07:53:15.037Z,6.00
2023-03-06T07:55:46.641Z,6.00
2023-03-06T07:58:16.542Z,6.00
2023-03-06T08:00:47.291Z,6.00
2023-03-06T08:03:17.090Z,6.00
2023-03-06T08:05:46.336Z,6.10
2023-03-06T08:08:15.289Z,6.10
2023-03-06T08:10:49.736Z,6.10
2023-03-06T08:13:18.905Z,6.20
2023-03-06T08:15:50.416Z,6.20
2023-03-06T08:18:19.619Z,6.20
2023-03-06T08:20:48.870Z,6.30
2023-03-06T08:23:17.953Z,6.30
2023-03-06T08:25:46.918Z,6.40
2023-03-06T08:28:15.973Z,6.50
2023-03-06T08:30:45.043Z,6.60
2023-03-06T08:33:15.702Z,6.60
2023-03-06T08:35:45.026Z,6.70
2023-03-06T08:38:14.186Z,6.70
2023-03-06T08:40:43.359Z,6.70
2023-03-06T08:43:14.180Z,6.80
2023-03-06T08:45:43.862Z,6.80
2023-03-06T08:48:12.978Z,6.90
2023-03-06T08:50:43.751Z,7.00
2023-03-06T08:53:13.191Z,7.00
2023-03-06T08:55:42.305Z,7.10
2023-03-06T08:58:11.725Z,7.10
2023-03-06T09:00:40.977Z,7.10
2023-03-06T09:03:10.153Z,7.20
2023-03-06T09:05:41.625Z,7.20
2023-03-06T09:08:12.078Z,7.30
2023-03-06T09:10:41.279Z,7.30
2023-03-06T09:13:10.444Z,7.30
2023-03-06T09:15:39.448Z,7.40
2023-03-06T09:18:08.564Z,7.40
2023-03-06T09:20:37.876Z,7.40
2023-03-06T09:23:07.079Z,7.50
2023-03-06T09:25:40.081Z,7.50
2023-03-06T09:28:11.883Z,7.60
2023-03-06T09:30:42.049Z,7.60
2023-03-06T09:33:11.144Z,7.60
2023-03-06T09:35:46.505Z,7.70
2023-03-06T09:38:15.979Z,7.70
2023-03-06T09:41:04.888Z,7.70
2023-03-06T09:43:38.631Z,7.70
2023-03-06T09:46:14.500Z,7.80
2023-03-06T09:48:54.832Z,7.80
2023-03-06T09:51:32.543Z,7.80
2023-03-06T09:54:13.051Z,7.80
2023-03-06T09:56:50.160Z,7.90
2023-03-06T09:59:22.760Z,7.90
2023-03-06T10:02:01.996Z,7.90
2023-03-06T10:04:37.252Z,7.90
2023-03-06T10:07:14.169Z,8.00
2023-03-06T10:09:47.460Z,7.90
2023-03-06T10:12:29.413Z,8.00
2023-03-06T10:15:08.268Z,8.00
2023-03-06T10:17:43.175Z,7.90
2023-03-06T10:20:21.264Z,8.00
2023-03-06T10:23:20.909Z,7.90
2023-03-06T10:25:56.618Z,8.00
2023-03-06T10:28:35.964Z,7.90
2023-03-06T10:31:17.230Z,7.90
2023-03-06T10:33:55.288Z,7.90
2023-03-06T10:36:30.718Z,7.90
2023-03-06T10:39:15.276Z,7.80
2023-03-06T10:41:46.278Z,7.80
2023-03-06T10:44:26.722Z,7.80
2023-03-06T10:46:57.484Z,7.70
2023-03-06T10:49:33.038Z,7.70
2023-03-06T10:52:05.443Z,7.70
2023-03-06T10:54:35.975Z,7.70
2023-03-06T10:57:21.521Z,7.60
2023-03-06T10:59:56.339Z,7.60
2023-03-06T11:02:28.473Z,7.50
2023-03-06T11:04:59.276Z,7.50
2023-03-06T11:07:30.356Z,7.50
2023-03-06T11:10:13.094Z,7.50
2023-03-06T11:12:43.859Z,7.50
2023-03-06T11:15:23.290Z,7.50
2023-03-06T11:18:04.336Z,7.50
2023-03-06T11:20:50.089Z,7.60
2023-03-06T11:23:23.045Z,7.60
2023-03-06T11:25:58.709Z,7.60
2023-03-06T11:28:31.562Z,7.60
2023-03-06T11:31:04.988Z,7.60
2023-03-06T11:33:42.099Z,7.60
2023-03-06T11:36:16.228Z,7.70
2023-03-06T11:38:50.211Z,7.60
2023-03-06T11:41:30.386Z,7.70
2023-03-06T11:44:07.452Z,7.70
2023-03-06T11:46:41.329Z,7.70
2023-03-06T11:49:19.591Z,7.80
2023-03-06T11:51:52.917Z,7.90
2023-03-06T11:54:22.779Z,8.00
2023-03-06T11:56:57.092Z,8.00
2023-03-06T11:59:50.874Z,8.00
2023-03-06T12:02:36.219Z,8.10
2023-03-06T12:05:24.543Z,8.00
2023-03-06T12:08:02.543Z,8.10
2023-03-06T12:10:39.801Z,8.10
2023-03-06T12:13:31.667Z,8.10
2023-03-06T12:16:33.601Z,8.20
2023-03-06T12:19:15.578Z,8.30
2023-03-06T12:21:49.874Z,8.40
2023-03-06T12:24:32.553Z,8.60
2023-03-06T12:27:13.809Z,8.70
2023-03-06T12:29:58.805Z,8.80
2023-03-06T12:32:39.474Z,8.80
2023-03-06T12:35:23.304Z,8.80
2023-03-06T12:38:06.549Z,8.80
2023-03-06T12:40:45.387Z,8.80
2023-03-06T12:43:46.607Z,8.70
2023-03-06T12:46:18.118Z,8.70
2023-03-06T12:49:02.934Z,8.60
2023-03-06T12:51:34.521Z,8.60
2023-03-06T12:54:04.563Z,8.60
2023-03-06T12:56:35.689Z,8.60
2023-03-06T12:59:32.056Z,8.50
2023-03-06T13:02:17.448Z,8.50
2023-03-06T13:04:56.492Z,8.50
2023-03-06T13:07:42.062Z,8.50
2023-03-06T13:10:22.229Z,8.50
2023-03-06T13:12:55.944Z,8.40
2023-03-06T13:15:46.716Z,8.30
2023-03-06T13:18:56.550Z,8.20
2023-03-06T13:22:02.436Z,8.00
2023-03-06T13:24:34.604Z,7.90
2023-03-06T13:27:06.985Z,7.70
2023-03-06T13:30:18.845Z,7.60
2023-03-06T13:32:49.051Z,7.50
2023-03-06T13:35:52.142Z,7.40
2023-03-06T13:38:33.488Z,7.40
2023-03-06T13:41:34.887Z,7.40
2023-03-06T13:44:30.676Z,7.40
2023-03-06T13:47:02.201Z,7.40
2023-03-06T13:49:31.896Z,7.40
2023-03-06T13:52:09.449Z,7.40
2023-03-06T13:54:56.437Z,7.40
2023-03-06T13:57:43.872Z,7.40
2023-03-06T14:00:43.114Z,7.50
2023-03-06T14:03:37.007Z,7.50
2023-03-06T14:06:42.361Z,7.50
2023-03-06T14:09:23.912Z,7.60
2023-03-06T14:11:56.070Z,7.60
2023-03-06T14:14:33.926Z,7.60
2023-03-06T14:17:05.263Z,7.60
2023-03-06T14:19:39.697Z,7.60
2023-03-06T14:22:18.108Z,7.50
2023-03-06T14:24:57.405Z,7.50
2023-03-06T14:27:42.433Z,7.40
2023-03-06T14:30:16.903Z,7.40
2023-03-06T14:32:46.500Z,7.40
2023-03-06T14:35:27.096Z,7.40
2023-03-06T14:38:00.045Z,7.40
2023-03-06T14:40:33.546Z,7.40
2023-03-06T14:43:20.854Z,7.30
2023-03-06T14:45:52.831Z,7.40
2023-03-06T14:48:22.794Z,7.40
2023-03-06T14:50:53.818Z,7.40
2023-03-06T14:53:26.545Z,7.40
2023-03-06T14:56:00.186Z,7.40
2023-03-06T14:58:32.993Z,7.50
2023-03-06T15:01:06.977Z,7.50
2023-03-06T15:03:43.708Z,7.60
2023-03-06T15:06:18.237Z,7.60
2023-03-06T15:08:50.301Z,7.70
2023-03-06T15:11:19.398Z,7.70
2023-03-06T15:14:02.082Z,7.70
2023-03-06T15:16:33.076Z,7.70
2023-03-06T15:19:03.617Z,7.70
2023-03-06T15:21:36.434Z,7.70
2023-03-06T15:24:31.553Z,7.70
2023-03-06T15:27:03.462Z,7.70
2023-03-06T15:29:32.888Z,7.60
2023-03-06T15:32:28.721Z,7.60
2023-03-06T15:35:27.908Z,7.60
2023-03-06T15:37:57.675Z,7.50
2023-03-06T15:40:29.580Z,7.50
2023-03-06T15:43:00.427Z,7.40
2023-03-06T15:45:32.023Z,7.40
2023-03-06T15:48:03.416Z,7.30
2023-03-06T15:50:34.043Z,7.30
2023-03-06T15:53:03.514Z,7.30
2023-03-06T15:55:34.144Z,7.30
2023-03-06T15:58:04.677Z,7.30
2023-03-06T16:00:36.713Z,7.30
2023-03-06T16:03:07.465Z,7.20
2023-03-06T16:05:36.885Z,7.20
2023-03-06T16:08:06.510Z,7.20
2023-03-06T16:10:39.171Z,7.20
2023-03-06T16:13:12.072Z,7.20
2023-03-06T16:15:45.962Z,7.10
2023-03-06T16:18:16.930Z,7.10
2023-03-06T16:20:46.640Z,7.10
2023-03-06T16:23:16.471Z,7.00
2023-03-06T16:25:49.340Z,7.00
2023-03-06T16:28:18.704Z,7.00
2023-03-06T16:30:47.828Z,7.00
2023-03-06T16:33:18.151Z,7.00
2023-03-06T16:35:48.118Z,7.00
2023-03-06T16:38:17.204Z,7.00
2023-03-06T16:40:46.166Z,7.00
2023-03-06T16:43:16.239Z,7.10
2023-03-06T16:45:45.817Z,7.10
2023-03-06T16:48:17.105Z,7.10
2023-03-06T16:50:47.657Z,7.10
2023-03-06T16:53:16.777Z,7.10
2023-03-06T16:55:46.756Z,7.10
2023-03-06T16:58:15.885Z,7.10
2023-03-06T17:00:45.383Z,7.10
2023-03-06T17:03:16.683Z,7.10
2023-03-06T17:05:47.060Z,7.10
2023-03-06T17:08:16.280Z,7.10
2023-03-06T17:10:45.453Z,7.10
2023-03-06T17:13:14.632Z,7.10
2023-03-06T17:15:56.038Z,7.10
2023-03-06T17:18:25.769Z,7.10
2023-03-06T17:20:58.228Z,7.10
2023-03-06T17:23:28.950Z,7.10
2023-03-06T17:26:06.884Z,7.10
2023-03-06T17:28:36.314Z,7.10
2023-03-06T17:31:13.117Z,7.10
2023-03-06T17:33:42.786Z,7.10
2023-03-06T17:36:15.519Z,7.10
2023-03-06T17:38:44.804Z,7.10
2023-03-06T17:41:14.756Z,7.00
2023-03-06T17:43:43.938Z,7.00
2023-03-06T17:46:14.009Z,7.00
2023-03-06T17:48:43.152Z,7.00
2023-03-06T17:51:14.475Z,7.00
2023-03-06T17:53:43.586Z,7.00
2023-03-06T17:56:15.129Z,7.00
2023-03-06T17:58:44.238Z,7.00
2023-03-06T18:01:14.469Z,7.00
2023-03-06T18:03:46.197Z,7.00
2023-03-06T18:06:18.248Z,7.00
2023-03-06T18:08:47.604Z,7.00
2023-03-06T18:11:17.279Z,7.00
2023-03-06T18:13:47.406Z,7.00
2023-03-06T18:16:19.381Z,7.00
2023-03-06T18:18:48.958Z,7.00
2023-03-06T18:21:19.987Z,7.00
2023-03-06T18:23:49.240Z,7.00
2023-03-06T18:26:20.282Z,7.00
2023-03-06T18:28:52.520Z,7.00
2023-03-06T18:31:24.304Z,7.00
2023-03-06T18:33:54.661Z,7.00
2023-03-06T18:36:27.090Z,7.00
2023-03-06T18:38:56.896Z,7.00
2023-03-06T18:41:25.990Z,7.00
2023-03-06T18:43:56.481Z,7.00
2023-03-06T18:46:27.111Z,7.00
2023-03-06T18:48:56.516Z,7.00
2023-03-06T18:51:27.292Z,7.00
2023-03-06T18:53:58.609Z,7.00
2023-03-06T18:56:28.123Z,7.00
2023-03-06T18:58:57.425Z,7.00
2023-03-06T19:01:27.222Z,7.00
2023-03-06T19:03:56.286Z,7.00
2023-03-06T19:06:27.949Z,7.00
2023-03-06T19:08:58.870Z,7.00
2023-03-06T19:11:28.351Z,7.00
2023-03-06T19:13:57.851Z,7.00
2023-03-06T19:16:29.565Z,7.00
2023-03-06T19:18:58.923Z,7.00
2023-03-06T19:21:29.857Z,7.00
2023-03-06T19:24:00.211Z,7.00
2023-03-06T19:26:29.073Z,7.00
2023-03-06T19:28:58.172Z,7.00
2023-03-06T19:31:28.938Z,7.00
2023-03-06T19:33:58.537Z,7.00
2023-03-06T19:36:33.632Z,7.00
2023-03-06T19:39:05.560Z,7.00
2023-03-06T19:41:35.426Z,6.90
2023-03-06T19:44:05.726Z,7.00
2023-03-06T19:46:36.143Z,6.90
2023-03-06T19:49:11.622Z,6.90
2023-03-06T19:51:42.531Z,7.00
2023-03-06T19:54:12.689Z,6.90
2023-03-06T19:56:41.790Z,7.00
2023-03-06T19:59:11.609Z,7.00
2023-03-06T20:01:41.227Z,7.00
2023-03-06T20:04:10.507Z,6.90
2023-03-06T20:06:39.427Z,6.90
2023-03-06T20:09:10.520Z,7.00
2023-03-06T20:11:40.094Z,7.00
2023-03-06T20:14:10.006Z,7.00
2023-03-06T20:16:39.614Z,7.00
2023-03-06T20:19:08.964Z,7.00
2023-03-06T20:21:38.564Z,7.00
2023-03-06T20:24:16.708Z,7.00
2023-03-06T20:26:46.967Z,7.00
2023-03-06T20:29:16.008Z,7.00
2023-03-06T20:31:45.147Z,6.90
2023-03-06T20:34:15.035Z,6.90
2023-03-06T20:36:44.427Z,6.90
2023-03-06T20:39:17.613Z,6.90
2023-03-06T20:41:47.632Z,6.90
2023-03-06T20:44:19.010Z,6.90
2023-03-06T20:46:48.219Z,6.90
2023-03-06T20:49:17.305Z,6.90
2023-03-06T20:51:46.600Z,6.80
2023-03-06T20:54:18.341Z,6.80
2023-03-06T20:56:50.210Z,6.80
2023-03-06T20:59:19.683Z,6.80
2023-03-06T21:01:49.111Z,6.80
2023-03-06T21:04:18.515Z,6.80
2023-03-06T21:06:48.321Z,6.80
2023-03-06T21:09:19.232Z,6.80
2023-03-06T21:11:48.554Z,6.80
2023-03-06T21:14:17.777Z,6.80
2023-03-06T21:16:47.282Z,6.80
2023-03-06T21:19:16.765Z,6.80
2023-03-06T21:21:45.820Z,6.80
2023-03-06T21:24:15.045Z,6.80
2023-03-06T21:26:45.811Z,6.80
2023-03-06T21:29:14.903Z,6.80
2023-03-06T21:31:43.957Z,6.80
2023-03-06T21:34:13.033Z,6.80
2023-03-06T21:36:43.006Z,6.80
2023-03-06T21:39:12.517Z,6.80
2023-03-06T21:41:42.302Z,6.80
2023-03-06T21:44:13.037Z,6.80
2023-03-06T21:46:42.250Z,6.80
2023-03-06T21:49:11.458Z,6.80
2023-03-06T21:51:41.697Z,6.80
2023-03-06T21:54:13.053Z,6.90
2023-03-06T21:56:42.291Z,6.80
2023-03-06T21:59:12.792Z,6.80
2023-03-06T22:01:42.805Z,6.80
2023-03-06T22:04:11.907Z,6.80
2023-03-06T22:06:41.313Z,6.80
2023-03-06T22:09:12.925Z,6.80
2023-03-06T22:11:43.126Z,6.80
2023-03-06T22:14:14.689Z,6.80
2023-03-06T22:16:43.932Z,6.90
2023-03-06T22:19:13.544Z,6.90
2023-03-06T22:21:42.766Z,6.90
2023-03-06T22:24:11.759Z,6.80
2023-03-06T22:26:41.034Z,6.80
2023-03-06T22:29:10.302Z,6.80
2023-03-06T22:31:40.678Z,6.90
2023-03-06T22:34:10.516Z,6.90
2023-03-06T22:36:39.858Z,6.90
2023-03-06T22:39:09.142Z,6.90
2023-03-06T22:41:38.341Z,6.90
2023-03-06T22:44:07.330Z,6.90
2023-03-06T22:46:36.316Z,6.90
2023-03-06T22:49:06.721Z,6.90
2023-03-06T22:51:37.593Z,6.90
2023-03-06T22:54:08.116Z,6.90
2023-03-06T22:56:38.023Z,6.90
2023-03-06T22:59:07.023Z,6.90
2023-03-06T23:01:36.300Z,6.90
2023-03-06T23:04:10.941Z,6.90
2023-03-06T23:06:43.497Z,6.90
2023-03-06T23:09:16.286Z,6.90
2023-03-06T23:12:03.782Z,6.90
2023-03-06T23:14:51.298Z,6.90
2023-03-06T23:17:38.891Z,6.90
2023-03-06T23:20:28.400Z,6.90
2023-03-06T23:23:15.898Z,6.90
2023-03-06T23:25:45.559Z,6.90
2023-03-06T23:28:14.560Z,6.90
2023-03-06T23:30:43.648Z,6.90
2023-03-06T23:33:12.660Z,6.90
2023-03-06T23:35:44.119Z,6.90
2023-03-06T23:38:13.638Z,6.80
2023-03-06T23:40:42.897Z,6.90
2023-03-06T23:43:11.875Z,6.80
2023-03-06T23:45:41.026Z,6.90
2023-03-06T23:48:09.928Z,6.80
2023-03-06T23:50:42.107Z,6.80
2023-03-06T23:53:11.195Z,6.80
2023-03-06T23:55:42.430Z,6.90
2023-03-06T23:58:12.163Z,6.90
